createdAt,value
2022-08-12T00:00:22.295Z,57.20
2022-08-12T00:03:08.163Z,57.00
2022-08-12T00:06:04.122Z,57.00
2022-08-12T00:08:52.716Z,57.00
2022-08-12T00:11:38.721Z,57.00
2022-08-12T00:14:26.110Z,56.90
2022-08-12T00:17:11.737Z,56.70
2022-08-12T00:19:57.564Z,56.70
2022-08-12T00:22:43.577Z,56.60
2022-08-12T00:26:21.630Z,56.40
2022-08-12T00:28:36.249Z,56.50
2022-08-12T00:31:23.880Z,56.30
2022-08-12T00:34:09.958Z,56.30
2022-08-12T00:36:59.607Z,56.20
2022-08-12T00:39:48.877Z,56.90
2022-08-12T00:42:19.754Z,56.40
2022-08-12T00:44:48.402Z,56.60
2022-08-12T00:47:24.715Z,56.60
2022-08-12T00:49:54.784Z,56.80
2022-08-12T00:52:25.112Z,56.80
2022-08-12T00:54:57.461Z,56.90
2022-08-12T00:57:28.971Z,56.90
2022-08-12T00:59:59.986Z,57.00
2022-08-12T01:02:32.374Z,57.00
2022-08-12T01:05:19.999Z,56.90
2022-08-12T01:08:07.741Z,56.80
2022-08-12T01:10:55.371Z,56.70
2022-08-12T01:13:24.663Z,56.70
2022-08-12T01:15:54.509Z,56.60
2022-08-12T01:18:26.593Z,56.70
2022-08-12T01:21:04.904Z,56.70
2022-08-12T01:23:47.444Z,56.80
2022-08-12T01:26:21.125Z,56.90
2022-08-12T01:28:51.729Z,56.90
2022-08-12T01:31:22.250Z,56.90
2022-08-12T01:34:00.815Z,57.00
2022-08-12T01:36:31.226Z,57.00
2022-08-12T01:39:00.637Z,57.00
2022-08-12T01:41:34.523Z,56.90
2022-08-12T01:44:03.401Z,56.90
2022-08-12T01:46:44.992Z,57.00
2022-08-12T01:49:45.153Z,57.00
2022-08-12T01:52:25.625Z,57.00
2022-08-12T01:54:55.303Z,57.00
2022-08-12T01:57:58.264Z,57.30
2022-08-12T02:00:19.792Z,58.40
2022-08-12T02:02:54.587Z,58.30
2022-08-12T02:06:04.249Z,58.70
2022-08-12T02:08:56.786Z,58.90
2022-08-12T02:11:29.201Z,59.30
2022-08-12T02:14:21.607Z,59.40
2022-08-12T02:17:05.757Z,59.90
2022-08-12T02:19:49.711Z,60.30
2022-08-12T02:22:29.527Z,60.60
2022-08-12T02:25:07.923Z,60.90
2022-08-12T02:27:40.850Z,61.10
2022-08-12T02:30:16.487Z,61.00
2022-08-12T02:32:47.151Z,61.00
2022-08-12T02:35:19.843Z,61.00
2022-08-12T02:37:51.454Z,61.10
2022-08-12T02:40:21.007Z,61.20
2022-08-12T02:42:56.260Z,61.30
2022-08-12T02:45:34.802Z,61.30
2022-08-12T02:48:08.227Z,61.00
2022-08-12T02:50:43.032Z,61.10
2022-08-12T02:53:14.042Z,61.10
2022-08-12T02:55:42.878Z,61.20
2022-08-12T02:58:14.674Z,61.00
2022-08-12T03:00:45.854Z,60.90
2022-08-12T03:03:15.529Z,60.70
2022-08-12T03:05:50.911Z,60.60
2022-08-12T03:08:31.695Z,60.40
2022-08-12T03:11:08.461Z,60.30
2022-08-12T03:13:46.855Z,60.40
2022-08-12T03:16:17.126Z,60.70
2022-08-12T03:18:46.958Z,61.00
2022-08-12T03:21:52.740Z,61.40
2022-08-12T03:24:09.067Z,61.60
2022-08-12T03:26:38.658Z,61.70
2022-08-12T03:29:08.459Z,61.90
2022-08-12T03:31:38.301Z,62.00
2022-08-12T03:34:09.548Z,62.10
2022-08-12T03:36:39.642Z,62.00
2022-08-12T03:39:36.463Z,61.90
2022-08-12T03:42:18.323Z,61.90
2022-08-12T03:45:15.326Z,61.80
2022-08-12T03:48:13.303Z,61.80
2022-08-12T03:51:06.036Z,61.80
2022-08-12T03:53:53.342Z,61.80
2022-08-12T03:56:39.408Z,61.90
2022-08-12T03:59:26.799Z,62.00
2022-08-12T04:01:58.581Z,61.90
2022-08-12T04:04:34.821Z,61.90
2022-08-12T04:07:04.130Z,62.20
2022-08-12T04:09:32.877Z,62.30
2022-08-12T04:12:18.881Z,62.30
2022-08-12T04:14:47.752Z,62.30
2022-08-12T04:17:17.331Z,62.40
2022-08-12T04:19:48.474Z,62.20
2022-08-12T04:22:17.141Z,62.10
2022-08-12T04:24:50.441Z,63.10
2022-08-12T04:27:19.122Z,65.00
2022-08-12T04:30:32.062Z,64.30
2022-08-12T04:32:40.837Z,63.70
2022-08-12T04:35:14.180Z,63.40
2022-08-12T04:37:59.719Z,65.70
2022-08-12T04:40:32.166Z,67.30
2022-08-12T04:43:02.337Z,68.30
2022-08-12T04:45:33.105Z,67.60
2022-08-12T04:48:02.762Z,66.60
2022-08-12T04:50:36.615Z,65.80
2022-08-12T04:53:08.019Z,65.40
2022-08-12T04:55:38.859Z,65.40
2022-08-12T04:58:07.441Z,65.20
2022-08-12T05:00:37.082Z,65.20
2022-08-12T05:03:06.868Z,65.20
2022-08-12T05:05:38.990Z,65.20
2022-08-12T05:08:13.118Z,65.40
2022-08-12T05:10:41.721Z,65.10
2022-08-12T05:13:14.587Z,65.20
2022-08-12T05:16:04.067Z,65.00
2022-08-12T05:18:33.811Z,64.40
2022-08-12T05:21:05.193Z,64.70
2022-08-12T05:23:34.386Z,65.50
2022-08-12T05:26:03.151Z,64.90
2022-08-12T05:28:31.686Z,65.10
2022-08-12T05:31:01.983Z,65.20
2022-08-12T05:33:38.583Z,65.10
2022-08-12T05:36:09.814Z,65.40
2022-08-12T05:38:56.246Z,66.30
2022-08-12T05:41:25.502Z,67.10
2022-08-12T05:43:55.294Z,66.40
2022-08-12T05:46:25.921Z,67.40
2022-08-12T05:48:55.735Z,67.60
2022-08-12T05:51:39.535Z,67.10
2022-08-12T05:54:10.042Z,67.20
2022-08-12T05:56:38.458Z,66.00
2022-08-12T05:59:08.181Z,66.10
2022-08-12T06:02:09.493Z,66.30
2022-08-12T06:04:25.811Z,66.90
2022-08-12T06:06:55.775Z,68.40
2022-08-12T06:09:26.498Z,68.80
2022-08-12T06:12:05.817Z,67.90
2022-08-12T06:14:37.972Z,67.10
2022-08-12T06:17:09.500Z,66.30
2022-08-12T06:20:28.909Z,65.90
2022-08-12T06:22:28.226Z,65.30
2022-08-12T06:24:57.423Z,66.40
2022-08-12T06:27:25.866Z,67.80
2022-08-12T06:30:08.389Z,70.40
2022-08-12T06:32:51.796Z,72.20
2022-08-12T06:35:48.725Z,77.20
2022-08-12T06:38:19.820Z,78.60
2022-08-12T06:41:12.706Z,77.30
2022-08-12T06:44:04.983Z,76.50
2022-08-12T06:46:32.126Z,76.40
2022-08-12T06:49:00.965Z,77.80
2022-08-12T06:51:30.678Z,79.40
2022-08-12T06:54:02.253Z,78.90
2022-08-12T06:57:01.945Z,78.40
2022-08-12T06:59:21.539Z,78.50
2022-08-12T07:01:51.659Z,76.20
2022-08-12T07:04:37.997Z,73.80
2022-08-12T07:07:07.521Z,73.00
2022-08-12T07:10:06.818Z,72.50
2022-08-12T07:12:27.739Z,72.10
2022-08-12T07:14:58.176Z,72.30
2022-08-12T07:17:36.509Z,73.00
2022-08-12T07:20:09.949Z,72.70
2022-08-12T07:22:40.618Z,72.30
2022-08-12T07:31:47.700Z,69.40
2022-08-12T07:34:17.262Z,69.70
2022-08-12T07:36:49.149Z,69.30
2022-08-12T07:39:17.702Z,69.70
2022-08-12T07:41:50.311Z,69.50
2022-08-12T07:44:19.020Z,69.50
2022-08-12T07:46:48.176Z,69.70
2022-08-12T07:49:17.587Z,69.50
2022-08-12T07:51:46.210Z,69.10
2022-08-12T07:54:14.937Z,68.70
2022-08-12T07:56:44.596Z,68.70
2022-08-12T07:59:14.418Z,68.40
2022-08-12T08:01:43.420Z,68.30
2022-08-12T08:04:29.747Z,68.20
2022-08-12T08:07:00.588Z,68.00
2022-08-12T08:09:29.221Z,68.20
2022-08-12T08:12:18.577Z,67.90
2022-08-12T08:14:53.663Z,67.30
2022-08-12T08:17:22.211Z,67.40
2022-08-12T08:20:02.630Z,66.10
2022-08-12T08:22:42.058Z,66.10
2022-08-12T08:25:35.054Z,65.70
2022-08-12T08:28:01.980Z,63.70
2022-08-12T08:30:33.744Z,63.20
2022-08-12T08:33:02.210Z,63.10
2022-08-12T08:35:37.778Z,62.20
2022-08-12T08:38:19.859Z,62.10
2022-08-12T08:42:15.317Z,62.10
2022-08-12T08:44:08.076Z,61.90
2022-08-12T08:46:38.572Z,61.00
2022-08-12T08:49:07.079Z,60.90
2022-08-12T08:51:35.649Z,61.10
2022-08-12T08:54:04.623Z,60.40
2022-08-12T08:56:33.190Z,60.70
2022-08-12T08:59:01.732Z,60.40
2022-08-12T09:01:37.544Z,60.40
2022-08-12T09:05:10.123Z,60.80
2022-08-12T09:07:16.880Z,61.00
2022-08-12T09:10:01.948Z,61.10
2022-08-12T09:12:54.393Z,61.00
2022-08-12T09:18:15.121Z,59.90
2022-08-12T09:20:45.179Z,59.80
2022-08-12T09:26:10.134Z,61.30
2022-08-12T09:28:41.134Z,60.70
2022-08-12T09:32:02.955Z,59.10
2022-08-12T09:34:27.729Z,59.40
2022-08-12T09:36:58.163Z,59.50
2022-08-12T09:40:06.574Z,59.30
2022-08-12T09:42:43.577Z,59.20
2022-08-12T09:45:24.707Z,59.20
2022-08-12T09:48:20.223Z,59.30
2022-08-12T09:50:55.141Z,59.50
2022-08-12T09:53:29.527Z,59.60
2022-08-12T09:57:00.231Z,59.70
2022-08-12T09:58:59.811Z,60.00
2022-08-12T10:01:34.630Z,60.00
2022-08-12T10:04:19.520Z,60.20
2022-08-12T10:06:55.184Z,60.50
2022-08-12T10:09:28.461Z,61.30
2022-08-12T10:12:32.714Z,61.00
2022-08-12T10:15:04.951Z,61.00
2022-08-12T10:18:05.928Z,61.00
2022-08-12T10:20:35.961Z,61.30
2022-08-12T10:23:05.816Z,61.60
2022-08-12T10:26:34.882Z,61.90
2022-08-12T10:29:02.853Z,61.80
2022-08-12T10:32:01.648Z,61.90
2022-08-12T10:34:25.853Z,62.40
2022-08-12T10:37:10.497Z,62.50
2022-08-12T10:40:07.019Z,62.40
2022-08-12T10:43:00.324Z,62.70
2022-08-12T10:45:31.881Z,62.70
2022-08-12T10:48:01.930Z,62.90
2022-08-12T10:50:56.674Z,63.20
2022-08-12T10:53:45.595Z,63.60
2022-08-12T10:56:16.292Z,64.50
2022-08-12T10:58:48.011Z,64.30
2022-08-12T11:02:05.245Z,64.60
2022-08-12T11:04:24.947Z,64.10
2022-08-12T11:07:05.762Z,63.90
2022-08-12T11:09:59.939Z,64.50
2022-08-12T11:12:56.388Z,65.90
2022-08-12T11:15:33.402Z,65.60
2022-08-12T11:18:18.566Z,65.10
2022-08-12T11:20:52.010Z,64.50
2022-08-12T11:23:24.605Z,63.80
2022-08-12T11:26:06.294Z,63.20
2022-08-12T11:28:37.186Z,62.70
2022-08-12T11:31:14.248Z,62.90
2022-08-12T11:34:05.706Z,63.10
2022-08-12T11:36:32.731Z,63.40
2022-08-12T11:39:08.576Z,63.20
2022-08-12T11:41:43.154Z,62.90
2022-08-12T11:44:36.321Z,62.90
2022-08-12T11:47:03.189Z,63.20
2022-08-12T11:49:38.070Z,63.30
2022-08-12T11:52:17.262Z,63.30
2022-08-12T11:54:55.365Z,63.40
2022-08-12T11:58:14.432Z,63.30
2022-08-12T12:03:04.420Z,63.20
2022-08-12T12:05:39.544Z,62.80
2022-08-12T12:08:40.902Z,62.60
2022-08-12T12:10:59.338Z,62.90
2022-08-12T12:14:07.929Z,62.70
2022-08-12T12:16:16.484Z,62.40
2022-08-12T12:18:46.576Z,63.00
2022-08-12T12:21:19.059Z,63.00
2022-08-12T12:24:28.013Z,62.80
2022-08-12T12:27:06.369Z,63.10
2022-08-12T12:30:19.886Z,63.10
2022-08-12T12:32:37.303Z,63.10
2022-08-12T12:36:17.069Z,63.40
2022-08-12T12:38:17.540Z,63.20
2022-08-12T12:40:50.532Z,62.60
2022-08-12T12:43:28.687Z,62.60
2022-08-12T12:46:08.782Z,63.00
2022-08-12T12:48:44.612Z,63.30
2022-08-12T12:51:22.128Z,63.20
2022-08-12T12:54:11.558Z,62.90
2022-08-12T12:56:50.546Z,63.90
2022-08-12T12:59:55.888Z,62.30
2022-08-12T13:02:39.015Z,61.90
2022-08-12T13:05:13.903Z,61.60
2022-08-12T13:07:55.038Z,61.70
2022-08-12T13:10:36.863Z,62.20
2022-08-12T13:14:07.310Z,62.70
2022-08-12T13:15:59.348Z,63.30
2022-08-12T13:18:31.790Z,63.40
2022-08-12T13:21:01.113Z,63.20
2022-08-12T13:23:36.195Z,63.30
2022-08-12T13:26:14.312Z,63.50
2022-08-12T13:28:49.673Z,63.40
2022-08-12T13:31:24.924Z,62.90
2022-08-12T13:34:32.035Z,62.90
2022-08-12T13:37:13.788Z,62.60
2022-08-12T13:40:09.054Z,62.50
2022-08-12T13:43:00.458Z,62.40
2022-08-12T13:45:50.420Z,62.10
2022-08-12T13:48:19.818Z,62.40
2022-08-12T13:50:48.401Z,62.50
2022-08-12T13:53:24.438Z,63.00
2022-08-12T13:56:01.766Z,62.90
2022-08-12T13:58:33.118Z,63.20
2022-08-12T14:01:06.486Z,62.90
2022-08-12T14:03:50.318Z,63.00
2022-08-12T14:06:21.354Z,63.30
2022-08-12T14:08:55.806Z,63.10
2022-08-12T14:11:28.135Z,62.50
2022-08-12T14:14:03.630Z,62.40
2022-08-12T14:16:48.774Z,62.40
2022-08-12T14:19:25.582Z,62.10
2022-08-12T14:22:00.626Z,62.50
2022-08-12T14:24:35.637Z,61.70
2022-08-12T14:27:09.257Z,61.10
2022-08-12T14:30:05.450Z,60.50
2022-08-12T14:32:36.520Z,60.80
2022-08-12T14:35:09.425Z,61.20
2022-08-12T14:37:57.911Z,61.40
2022-08-12T14:40:29.487Z,61.80
2022-08-12T14:43:00.180Z,61.50
2022-08-12T14:45:45.273Z,61.90
2022-08-12T14:48:19.022Z,62.00
2022-08-12T14:52:10.359Z,61.90
2022-08-12T14:55:10.835Z,61.90
2022-08-12T14:59:57.498Z,61.60
2022-08-12T15:02:22.521Z,61.40
2022-08-12T15:04:59.720Z,61.00
2022-08-12T15:07:33.706Z,61.00
2022-08-12T15:10:25.346Z,60.90
2022-08-12T15:13:07.693Z,60.90
2022-08-12T15:15:43.649Z,61.10
2022-08-12T15:18:14.547Z,61.30
2022-08-12T15:20:42.986Z,61.10
2022-08-12T15:23:18.147Z,61.30
2022-08-12T15:25:59.903Z,61.30
2022-08-12T15:28:33.668Z,61.20
2022-08-12T15:31:21.774Z,60.60
2022-08-12T15:33:57.140Z,60.40
2022-08-12T15:36:53.572Z,60.40
2022-08-12T15:39:16.962Z,60.30
2022-08-12T15:41:49.431Z,60.20
2022-08-12T15:44:38.535Z,60.60
2022-08-12T15:47:10.058Z,59.90
2022-08-12T15:49:54.626Z,59.80
2022-08-12T15:52:29.397Z,59.60
2022-08-12T15:55:06.618Z,59.60
2022-08-12T15:57:41.775Z,59.50
2022-08-12T16:00:29.027Z,59.50
2022-08-12T16:03:05.673Z,59.70
2022-08-12T16:06:19.040Z,59.80
2022-08-12T16:08:29.855Z,59.90
2022-08-12T16:10:58.567Z,59.90
2022-08-12T16:13:34.930Z,59.90
2022-08-12T16:16:22.780Z,60.00
2022-08-12T16:18:59.455Z,60.30
2022-08-12T16:21:52.456Z,60.80
2022-08-12T16:24:19.209Z,60.90
2022-08-12T16:26:51.040Z,60.90
2022-08-12T16:29:24.622Z,61.00
2022-08-12T16:31:54.387Z,61.00
2022-08-12T16:34:25.750Z,61.00
2022-08-12T16:37:13.441Z,61.00
2022-08-12T16:40:00.560Z,61.20
2022-08-12T16:42:30.937Z,61.50
2022-08-12T16:45:03.067Z,61.20
2022-08-12T16:47:57.292Z,61.30
2022-08-12T16:50:30.999Z,61.30
2022-08-12T16:53:02.374Z,61.20
2022-08-12T16:55:42.416Z,61.30
2022-08-12T16:58:18.772Z,61.30
2022-08-12T17:00:59.449Z,61.30
2022-08-12T17:03:35.248Z,62.20
2022-08-12T17:06:09.808Z,63.50
2022-08-12T17:08:39.280Z,65.00
2022-08-12T17:11:18.265Z,66.00
2022-08-12T17:13:53.113Z,66.90
2022-08-12T17:16:24.045Z,67.50
2022-08-12T17:18:57.272Z,67.50
2022-08-12T17:21:40.959Z,66.80
2022-08-12T17:24:28.938Z,66.40
2022-08-12T17:27:00.579Z,66.60
2022-08-12T17:30:01.475Z,67.70
2022-08-12T17:32:31.456Z,68.30
2022-08-12T17:35:19.213Z,68.30
2022-08-12T17:37:50.877Z,68.30
2022-08-12T17:40:36.305Z,68.30
2022-08-12T17:43:52.196Z,68.30
2022-08-12T17:45:59.866Z,68.10
2022-08-12T17:48:34.193Z,68.20
2022-08-12T17:51:06.942Z,68.40
2022-08-12T17:54:05.996Z,68.60
2022-08-12T17:56:27.898Z,68.50
2022-08-12T17:59:01.569Z,68.60
2022-08-12T18:01:34.810Z,68.60
2022-08-12T18:04:22.913Z,68.60
2022-08-12T18:06:52.794Z,68.70
2022-08-12T18:09:35.980Z,68.70
2022-08-12T18:12:24.658Z,68.50
2022-08-12T18:15:00.592Z,68.60
2022-08-12T18:17:30.536Z,68.70
2022-08-12T18:20:05.971Z,68.60
2022-08-12T18:22:39.464Z,68.60
2022-08-12T18:26:12.730Z,68.80
2022-08-12T18:28:15.163Z,69.00
2022-08-12T18:30:52.868Z,69.10
2022-08-12T18:33:25.802Z,69.10
2022-08-12T18:35:57.129Z,69.10
2022-08-12T18:38:28.028Z,69.20
2022-08-12T18:41:30.181Z,69.10
2022-08-12T18:44:08.036Z,69.20
2022-08-12T18:46:55.448Z,69.10
2022-08-12T18:49:30.663Z,69.40
2022-08-12T18:52:04.269Z,69.90
2022-08-12T18:54:36.402Z,70.20
2022-08-12T18:57:15.440Z,69.90
2022-08-12T18:59:59.934Z,69.60
2022-08-12T19:02:33.964Z,69.00
2022-08-12T19:05:09.963Z,69.60
2022-08-12T19:07:49.367Z,73.60
2022-08-12T19:10:27.351Z,77.60
2022-08-12T19:13:23.064Z,80.90
2022-08-12T19:15:54.511Z,82.90
2022-08-12T19:18:30.800Z,83.90
2022-08-12T19:21:12.095Z,83.90
2022-08-12T19:23:44.392Z,83.60
2022-08-12T19:26:13.290Z,83.90
2022-08-12T19:28:43.685Z,85.60
2022-08-12T19:31:56.661Z,86.40
2022-08-12T19:37:20.214Z,84.60
2022-08-12T19:40:08.639Z,83.20
2022-08-12T19:42:44.874Z,82.60
2022-08-12T19:45:18.386Z,82.60
2022-08-12T19:47:47.026Z,82.10
2022-08-12T19:50:20.039Z,81.30
2022-08-12T19:52:50.900Z,80.70
2022-08-12T19:55:21.825Z,80.70
2022-08-12T19:58:03.118Z,81.70
2022-08-12T20:00:35.029Z,80.70
2022-08-12T20:03:06.317Z,81.80
2022-08-12T20:06:06.528Z,82.80
2022-08-12T20:08:31.369Z,83.50
2022-08-12T20:12:09.752Z,85.90
2022-08-12T20:14:00.351Z,87.10
2022-08-12T20:19:52.545Z,88.40
2022-08-12T20:22:24.310Z,89.30
2022-08-12T20:25:00.981Z,89.60
2022-08-12T20:28:02.370Z,89.80
2022-08-12T20:30:37.939Z,89.00
2022-08-12T20:33:18.688Z,88.10
2022-08-12T20:36:13.394Z,86.60
2022-08-12T20:38:40.807Z,86.90
2022-08-12T20:41:17.418Z,87.00
2022-08-12T20:43:52.159Z,86.20
2022-08-12T20:46:21.803Z,86.80
2022-08-12T20:48:55.098Z,86.70
2022-08-12T20:51:27.548Z,86.10
2022-08-12T20:53:59.465Z,86.80
2022-08-12T20:56:34.911Z,85.70
2022-08-12T20:59:06.158Z,85.40
2022-08-12T21:01:47.224Z,83.70
2022-08-12T21:04:37.030Z,84.70
2022-08-12T21:07:08.971Z,84.90
2022-08-12T21:09:42.298Z,83.10
2022-08-12T21:12:31.222Z,80.40
2022-08-12T21:15:22.997Z,79.50
2022-08-12T21:18:11.449Z,77.40
2022-08-12T21:20:54.360Z,76.70
2022-08-12T21:23:23.778Z,76.40
2022-08-12T21:25:56.343Z,76.70
2022-08-12T21:28:30.802Z,77.80
2022-08-12T21:32:35.120Z,79.10
2022-08-12T21:34:06.640Z,79.20
2022-08-12T21:36:43.313Z,79.40
2022-08-12T21:39:21.377Z,80.00
2022-08-12T21:41:52.847Z,80.00
2022-08-12T21:45:44.099Z,80.20
2022-08-12T21:47:20.872Z,79.80
2022-08-12T21:50:03.406Z,79.70
2022-08-12T21:52:41.059Z,79.70
2022-08-12T21:55:18.912Z,79.20
2022-08-12T21:57:54.946Z,79.30
2022-08-12T22:00:36.889Z,78.70
2022-08-12T22:04:04.218Z,78.40
2022-08-12T22:06:31.480Z,78.70
2022-08-12T22:09:15.859Z,78.20
2022-08-12T22:11:56.416Z,77.70
2022-08-12T22:14:29.313Z,78.00
2022-08-12T22:17:00.394Z,77.80
2022-08-12T22:19:34.959Z,77.60
2022-08-12T22:22:04.903Z,77.70
2022-08-12T22:24:35.405Z,77.60
2022-08-12T22:27:08.183Z,77.00
2022-08-12T22:30:09.163Z,76.30
2022-08-12T22:32:49.857Z,75.90
2022-08-12T22:35:55.551Z,75.60
2022-08-12T22:38:26.780Z,76.10
2022-08-12T22:41:01.840Z,77.10
2022-08-12T22:43:59.718Z,78.10
2022-08-12T22:46:52.075Z,78.40
2022-08-12T22:49:36.513Z,78.90
2022-08-12T22:52:13.347Z,79.60
2022-08-12T22:55:02.237Z,80.80
2022-08-12T22:57:53.291Z,82.30
2022-08-12T23:00:27.753Z,83.60
2022-08-12T23:03:03.459Z,84.20
2022-08-12T23:06:09.447Z,84.70
2022-08-12T23:08:30.154Z,84.70
2022-08-12T23:11:04.525Z,85.40
2022-08-12T23:13:49.225Z,86.10
2022-08-12T23:16:31.152Z,86.30
2022-08-12T23:19:09.506Z,86.30
2022-08-12T23:22:05.438Z,86.40
2022-08-12T23:24:35.298Z,85.70
2022-08-12T23:27:23.728Z,85.90
2022-08-12T23:30:18.691Z,86.00
2022-08-12T23:32:54.770Z,87.10
2022-08-12T23:35:45.498Z,87.30
2022-08-12T23:38:30.288Z,87.70
2022-08-12T23:41:01.396Z,88.20
2022-08-12T23:43:39.026Z,88.70
2022-08-12T23:46:11.142Z,88.60
2022-08-12T23:48:40.758Z,88.90
2022-08-12T23:51:22.040Z,89.00
2022-08-12T23:53:54.987Z,89.30
2022-08-12T23:56:25.463Z,89.60
2022-08-12T23:58:58.582Z,89.90
